Airfield :
LOGIN :

Register | Disclaimer

   EN    FR    IT 

 










Legend :    VFR   Marginal VFR   IFR   Intensive IFR   Very Intensive IFR
Visi :
Ceiling :
>= 8 km
>= 3000ft
5 to 8 km
1000 to 3000 ft
1500m to 5 km
500 to 1000 ft
800 to 1500m
200 to 500 ft
< 800m
< 200 ft
Symbols :   Thunderstorms  Fog  Heavy snow  Heavy precipitations  Wind > 20 kt
SIGMETs :     Misc.  Thunderstorms  Icing  Turbulence  Mountain Waves  Volcanic Ashes






- Airport Elevation : 19 ft
- IATA code : BEB


EGPL - Benbecula

CURRENT METAR :
  • 271020Z 34020KT 9999 VCSH FEW010 SCT016 10/08 Q1001

EXPIRED METARs :
  • 270950Z 35023KT 9999 SHRA FEW006 SCT010 BKN020 10/08 Q1001
  • 270920Z 34021G32KT 9999 -SHRA FEW008 SCT012 BKN020 10/08 Q1001
  • 270850Z 33021KT 9999 VCSH SCT010 SCT020 11/06 Q1001
  • 270820Z 33021KT 9999 VCSH SCT012 SCT020 11/06 Q1001
  • 270750Z 34023G36KT 9999 -SHRA FEW008 SCT011 BKN020 09/07 Q1001

TAF TAF EGPL
Valid from the 27 at 09:00 until the 27 at 17:00 UTC


270756Z 2709/2717 34024KT 9999 SCT030
TEMPO 2709/2714 35027G37KT
PROB40
TEMPO 2709/2717 6000 SHRA
BECMG 2713/2715 01015KT
TEMPO 2714/2715 01018G30KT
ATIS : +44 1870 604 818



MET'MAP, your aeronautical weather chart ! - Copyright ORBIFLY December 2007 - Disclaimer

ORBIFLY MET'MAP TEAM :

Programming & Development : Alexandra Zaïnal
Original concept : Baudouin d'Aumeries
Technical & hardware support : Manuel Goepfert
Assistance : Marc-Olivier Méhu




SOURCES & CREDITS :

   NOAA